createdAt,value
2019-05-02T00:01:11.467Z,59.60
2019-05-02T00:03:41.259Z,60.10
2019-05-02T00:06:12.057Z,60.30
2019-05-02T00:08:44.355Z,60.40
2019-05-02T00:11:13.904Z,60.30
2019-05-02T00:13:43.395Z,60.40
2019-05-02T00:16:18.541Z,60.50
2019-05-02T00:18:47.733Z,60.60
2019-05-02T00:21:17.231Z,60.70
2019-05-02T00:23:46.635Z,61.00
2019-05-02T00:26:15.926Z,61.90
2019-05-02T00:28:48.087Z,61.30
2019-05-02T00:31:20.022Z,61.80
2019-05-02T00:33:48.722Z,61.30
2019-05-02T00:36:18.087Z,61.20
2019-05-02T00:38:49.817Z,61.30
2019-05-02T00:41:19.273Z,61.40
2019-05-02T00:43:48.690Z,61.60
2019-05-02T00:46:17.987Z,61.40
2019-05-02T00:48:59.655Z,61.50
2019-05-02T00:51:28.501Z,61.70
2019-05-02T00:53:57.707Z,61.60
2019-05-02T00:56:26.887Z,61.70
2019-05-02T00:58:56.166Z,61.60
2019-05-02T01:01:44.390Z,61.70
2019-05-02T01:04:27.434Z,61.70
2019-05-02T01:06:55.768Z,61.70
2019-05-02T01:09:25.094Z,61.70
2019-05-02T01:11:54.343Z,61.70
2019-05-02T01:14:27.295Z,61.70
2019-05-02T01:16:58.052Z,61.80
2019-05-02T01:19:27.416Z,61.80
2019-05-02T01:21:56.686Z,62.00
2019-05-02T01:24:25.938Z,62.10
2019-05-02T01:27:14.126Z,62.10
2019-05-02T01:29:48.630Z,62.40
2019-05-02T01:32:25.298Z,62.40
2019-05-02T01:35:09.999Z,62.30
2019-05-02T01:37:58.234Z,62.40
2019-05-02T01:40:27.581Z,62.40
2019-05-02T01:42:58.065Z,62.50
2019-05-02T01:45:27.406Z,63.40
2019-05-02T01:47:56.581Z,62.50
2019-05-02T01:50:28.849Z,62.50
2019-05-02T01:52:58.570Z,62.70
2019-05-02T01:55:27.831Z,62.70
2019-05-02T01:57:57.111Z,62.80
2019-05-02T02:00:29.791Z,62.90
2019-05-02T02:02:59.222Z,63.10
2019-05-02T02:05:32.271Z,63.20
2019-05-02T02:07:59.647Z,63.20
2019-05-02T02:10:29.108Z,63.20
2019-05-02T02:13:04.887Z,63.20
2019-05-02T02:15:30.271Z,63.30
2019-05-02T02:17:59.662Z,63.40
2019-05-02T02:20:31.999Z,63.60
2019-05-02T02:23:10.160Z,63.60
2019-05-02T02:25:45.444Z,63.80
2019-05-02T02:28:14.594Z,63.70
2019-05-02T02:30:44.460Z,63.80
2019-05-02T02:33:13.759Z,63.80
2019-05-02T02:35:49.526Z,63.90
2019-05-02T02:38:13.880Z,63.90
2019-05-02T02:40:43.086Z,64.00
2019-05-02T02:43:32.179Z,64.10
2019-05-02T02:45:57.690Z,64.30
2019-05-02T02:48:23.124Z,64.20
2019-05-02T02:50:52.407Z,64.40
2019-05-02T02:53:30.753Z,64.40
2019-05-02T02:56:03.938Z,64.40
2019-05-02T02:58:44.104Z,64.50
2019-05-02T03:01:03.917Z,64.50
2019-05-02T03:03:35.430Z,64.70
2019-05-02T03:06:07.606Z,64.70
2019-05-02T03:08:45.229Z,64.80
2019-05-02T03:11:08.490Z,64.80
2019-05-02T03:14:07.561Z,64.90
2019-05-02T03:16:33.972Z,65.00
2019-05-02T03:19:03.246Z,65.10
2019-05-02T03:21:32.625Z,65.30
2019-05-02T03:24:05.475Z,65.40
2019-05-02T03:26:33.608Z,65.60
2019-05-02T03:29:03.421Z,65.70
2019-05-02T03:31:32.703Z,65.90
2019-05-02T03:34:02.453Z,66.00
2019-05-02T03:36:36.442Z,66.10
2019-05-02T03:39:13.376Z,66.10
2019-05-02T03:41:33.723Z,66.10
2019-05-02T03:44:11.384Z,66.10
2019-05-02T03:46:34.068Z,66.30
2019-05-02T03:49:07.279Z,66.30
2019-05-02T03:51:34.412Z,66.20
2019-05-02T03:54:07.758Z,66.30
2019-05-02T03:56:34.670Z,66.10
2019-05-02T03:59:04.032Z,66.10
2019-05-02T04:01:34.665Z,66.10
2019-05-02T04:04:05.410Z,66.00
2019-05-02T04:06:34.624Z,66.00
2019-05-02T04:09:05.905Z,66.00
2019-05-02T04:11:40.794Z,65.90
2019-05-02T04:14:17.530Z,65.90
2019-05-02T04:16:41.177Z,66.00
2019-05-02T04:19:10.522Z,66.00
2019-05-02T04:21:39.837Z,66.00
2019-05-02T04:24:15.155Z,65.80
2019-05-02T04:26:52.129Z,66.00
2019-05-02T04:29:11.599Z,66.00
2019-05-02T04:31:40.833Z,65.80
2019-05-02T04:34:15.813Z,65.80
2019-05-02T04:36:41.157Z,65.80
2019-05-02T04:39:15.151Z,65.90
2019-05-02T04:41:42.503Z,65.90
2019-05-02T04:44:11.938Z,65.80
2019-05-02T04:46:41.285Z,65.90
2019-05-02T04:49:10.624Z,65.90
2019-05-02T04:51:39.790Z,66.00
2019-05-02T04:54:09.376Z,65.90
2019-05-02T04:56:39.712Z,65.90
2019-05-02T04:59:17.803Z,65.90
2019-05-02T05:01:49.066Z,65.90
2019-05-02T05:04:27.581Z,65.90
2019-05-02T05:07:00.911Z,65.80
2019-05-02T05:09:27.924Z,65.90
2019-05-02T05:11:59.038Z,65.80
2019-05-02T05:14:31.378Z,65.70
2019-05-02T05:16:59.258Z,65.60
2019-05-02T05:19:37.742Z,65.50
2019-05-02T05:22:11.986Z,65.50
2019-05-02T05:24:55.675Z,65.70
2019-05-02T05:27:27.675Z,65.70
2019-05-02T05:29:59.545Z,65.80
2019-05-02T05:32:28.259Z,65.90
2019-05-02T05:34:57.988Z,66.00
2019-05-02T05:37:29.459Z,66.10
2019-05-02T05:39:58.363Z,66.10
2019-05-02T05:42:30.199Z,66.20
2019-05-02T05:44:58.502Z,66.10
2019-05-02T05:47:27.755Z,66.90
2019-05-02T05:50:00.957Z,66.10
2019-05-02T05:52:27.949Z,66.00
2019-05-02T05:54:57.944Z,65.70
2019-05-02T05:57:27.974Z,65.50
2019-05-02T06:00:11.999Z,65.60
2019-05-02T06:02:50.886Z,65.50
2019-05-02T06:05:08.455Z,65.60
2019-05-02T06:07:41.864Z,65.70
2019-05-02T06:10:09.925Z,65.80
2019-05-02T06:12:39.385Z,66.00
2019-05-02T06:15:08.711Z,65.80
2019-05-02T06:17:38.071Z,65.60
2019-05-02T06:20:07.427Z,65.50
2019-05-02T06:22:36.737Z,65.60
2019-05-02T06:25:09.491Z,65.70
2019-05-02T06:27:39.053Z,65.50
2019-05-02T06:30:09.255Z,65.60
2019-05-02T06:32:38.696Z,65.40
2019-05-02T06:35:08.320Z,66.00
2019-05-02T06:37:40.656Z,64.90
2019-05-02T06:40:12.116Z,64.90
2019-05-02T06:42:41.524Z,64.90
2019-05-02T06:45:12.265Z,64.80
2019-05-02T06:47:43.618Z,64.80
2019-05-02T06:50:14.362Z,64.50
2019-05-02T06:52:43.657Z,64.30
2019-05-02T06:55:14.777Z,64.30
2019-05-02T06:57:44.183Z,63.80
2019-05-02T07:00:13.739Z,63.60
2019-05-02T07:02:43.140Z,63.60
2019-05-02T07:05:14.704Z,63.20
2019-05-02T07:07:44.038Z,63.20
2019-05-02T07:10:13.474Z,63.00
2019-05-02T07:12:46.208Z,62.70
2019-05-02T07:15:33.657Z,62.50
2019-05-02T07:18:05.484Z,62.20
2019-05-02T07:20:40.494Z,61.70
2019-05-02T07:23:10.630Z,62.00
2019-05-02T07:25:39.095Z,63.00
2019-05-02T07:28:09.446Z,61.70
2019-05-02T07:30:39.732Z,61.70
2019-05-02T07:33:09.019Z,61.10
2019-05-02T07:35:38.347Z,60.90
2019-05-02T07:38:07.562Z,60.50
2019-05-02T07:40:37.067Z,60.60
2019-05-02T07:43:06.531Z,60.30
2019-05-02T07:45:40.210Z,60.30
2019-05-02T07:48:12.525Z,60.50
2019-05-02T07:50:41.318Z,60.50
2019-05-02T07:53:14.150Z,59.90
2019-05-02T07:55:42.673Z,59.60
2019-05-02T07:58:12.255Z,59.80
2019-05-02T08:00:41.614Z,59.80
2019-05-02T08:03:10.932Z,59.80
2019-05-02T08:05:42.239Z,59.90
2019-05-02T08:08:12.859Z,59.80
2019-05-02T08:10:43.584Z,60.50
2019-05-02T08:13:17.550Z,59.70
2019-05-02T08:15:45.549Z,59.70
2019-05-02T08:18:14.738Z,59.50
2019-05-02T08:20:44.224Z,59.50
2019-05-02T08:23:13.685Z,59.20
2019-05-02T08:25:45.453Z,59.10
2019-05-02T08:28:19.326Z,59.40
2019-05-02T08:30:54.704Z,59.00
2019-05-02T08:33:24.089Z,59.00
2019-05-02T08:35:53.512Z,59.00
2019-05-02T08:38:22.843Z,59.00
2019-05-02T08:40:52.200Z,58.80
2019-05-02T08:43:21.425Z,58.50
2019-05-02T08:45:50.678Z,58.40
2019-05-02T08:48:22.612Z,58.30
2019-05-02T08:50:50.988Z,58.10
2019-05-02T08:53:22.089Z,58.00
2019-05-02T08:55:51.348Z,57.50
2019-05-02T08:58:20.666Z,57.10
2019-05-02T09:00:49.978Z,57.00
2019-05-02T09:03:19.208Z,57.00
2019-05-02T09:05:48.595Z,56.70
2019-05-02T09:08:17.792Z,56.80
2019-05-02T09:10:47.093Z,57.00
2019-05-02T09:13:23.538Z,56.80
2019-05-02T09:15:51.333Z,56.80
2019-05-02T09:18:18.404Z,56.70
2019-05-02T09:20:54.913Z,56.70
2019-05-02T09:23:18.738Z,56.80
2019-05-02T09:25:47.898Z,56.50
2019-05-02T09:28:21.459Z,56.20
2019-05-02T09:30:48.276Z,56.30
2019-05-02T09:33:17.586Z,56.10
2019-05-02T09:35:46.788Z,56.10
2019-05-02T09:38:16.456Z,56.00
2019-05-02T09:40:47.312Z,55.70
2019-05-02T09:43:16.829Z,55.30
2019-05-02T09:45:46.023Z,55.00
2019-05-02T09:48:17.131Z,54.70
2019-05-02T09:50:46.180Z,54.90
2019-05-02T09:53:20.626Z,55.00
2019-05-02T09:55:50.191Z,54.90
2019-05-02T09:58:21.318Z,54.70
2019-05-02T10:01:13.507Z,54.40
2019-05-02T10:03:42.980Z,54.20
2019-05-02T10:06:13.963Z,54.30
2019-05-02T10:08:46.306Z,54.10
2019-05-02T10:11:17.041Z,54.30
2019-05-02T10:13:45.259Z,54.00
2019-05-02T10:16:18.073Z,53.50
2019-05-02T10:18:45.494Z,53.50
2019-05-02T10:21:17.165Z,53.50
2019-05-02T10:23:45.912Z,53.80
2019-05-02T10:26:19.989Z,53.30
2019-05-02T10:28:50.565Z,53.30
2019-05-02T10:31:17.389Z,53.50
2019-05-02T10:33:46.777Z,53.30
2019-05-02T10:36:19.672Z,53.30
2019-05-02T10:38:48.933Z,52.90
2019-05-02T10:41:17.993Z,52.60
2019-05-02T10:43:54.003Z,52.40
2019-05-02T10:46:27.737Z,52.50
2019-05-02T10:49:02.884Z,52.30
2019-05-02T10:51:35.542Z,52.20
2019-05-02T10:54:07.875Z,52.40
2019-05-02T10:56:37.396Z,52.60
2019-05-02T10:59:06.925Z,52.30
2019-05-02T11:01:59.174Z,51.90
2019-05-02T11:04:29.386Z,51.90
2019-05-02T11:06:58.896Z,51.70
2019-05-02T11:09:28.134Z,51.90
2019-05-02T11:11:57.806Z,51.80
2019-05-02T11:14:42.214Z,51.80
2019-05-02T11:17:22.671Z,51.60
2019-05-02T11:20:04.984Z,51.80
2019-05-02T11:22:34.232Z,51.30
2019-05-02T11:25:03.807Z,51.40
2019-05-02T11:27:33.036Z,51.60
2019-05-02T11:30:02.835Z,51.60
2019-05-02T11:32:32.774Z,51.50
2019-05-02T11:35:02.966Z,50.50
2019-05-02T11:37:32.820Z,50.00
2019-05-02T11:40:06.077Z,49.90
2019-05-02T11:42:33.395Z,49.10
2019-05-02T11:45:02.839Z,48.50
2019-05-02T11:47:32.861Z,47.90
2019-05-02T11:50:02.578Z,47.70
2019-05-02T11:52:36.200Z,46.80
2019-05-02T11:55:03.088Z,46.10
2019-05-02T11:57:33.182Z,45.70
2019-05-02T12:00:05.198Z,44.90
2019-05-02T12:02:58.059Z,45.20
2019-05-02T12:05:35.555Z,46.10
2019-05-02T12:08:07.938Z,46.00
2019-05-02T12:10:36.696Z,44.70
2019-05-02T12:13:06.623Z,43.20
2019-05-02T12:15:36.519Z,42.80
2019-05-02T12:18:06.025Z,43.30
2019-05-02T12:20:36.730Z,42.80
2019-05-02T12:23:09.003Z,42.30
2019-05-02T12:25:37.414Z,41.80
2019-05-02T12:28:06.974Z,41.30
2019-05-02T12:30:37.971Z,41.00
2019-05-02T12:33:07.351Z,41.40
2019-05-02T12:35:36.673Z,42.50
2019-05-02T12:38:06.129Z,42.30
2019-05-02T12:40:35.579Z,42.10
2019-05-02T12:43:04.847Z,41.90
2019-05-02T12:45:34.211Z,41.80
2019-05-02T12:48:17.783Z,42.80
2019-05-02T12:50:48.074Z,42.60
2019-05-02T12:53:17.275Z,41.80
2019-05-02T12:55:46.695Z,42.30
2019-05-02T12:58:16.115Z,41.80
2019-05-02T13:00:46.924Z,40.10
2019-05-02T13:03:38.245Z,40.20
2019-05-02T13:06:07.528Z,40.40
2019-05-02T13:08:48.559Z,40.60
2019-05-02T13:11:36.950Z,41.10
2019-05-02T13:14:16.773Z,41.40
2019-05-02T13:16:38.083Z,41.20
2019-05-02T13:19:07.408Z,40.40
2019-05-02T13:21:45.225Z,40.40
2019-05-02T13:24:29.946Z,40.50
2019-05-02T13:27:00.932Z,39.30
2019-05-02T13:29:32.149Z,39.30
2019-05-02T13:32:23.350Z,38.70
2019-05-02T13:34:57.636Z,38.10
2019-05-02T13:37:27.083Z,37.00
2019-05-02T13:40:12.024Z,36.50
2019-05-02T13:42:43.996Z,36.40
2019-05-02T13:45:37.254Z,36.20
2019-05-02T13:48:06.691Z,35.20
2019-05-02T13:50:36.011Z,34.70
2019-05-02T13:53:05.506Z,35.20
2019-05-02T13:55:39.526Z,34.90
2019-05-02T13:58:08.842Z,34.40
2019-05-02T14:00:44.270Z,34.50
2019-05-02T14:03:14.107Z,34.90
2019-05-02T14:05:48.940Z,35.50
2019-05-02T14:08:32.378Z,35.00
2019-05-02T14:11:17.529Z,34.70
2019-05-02T14:13:47.051Z,34.50
2019-05-02T14:16:16.405Z,33.80
2019-05-02T14:18:45.726Z,33.30
2019-05-02T14:21:17.677Z,32.40
2019-05-02T14:23:47.003Z,32.80
2019-05-02T14:26:27.536Z,33.40
2019-05-02T14:28:47.315Z,33.20
2019-05-02T14:31:16.471Z,32.30
2019-05-02T14:34:06.707Z,31.80
2019-05-02T14:36:36.019Z,31.60
2019-05-02T14:39:09.620Z,32.00
2019-05-02T14:41:41.935Z,32.10
2019-05-02T14:44:12.007Z,32.30
2019-05-02T14:46:46.999Z,32.40
2019-05-02T14:49:23.900Z,32.90
2019-05-02T14:51:48.503Z,33.20
2019-05-02T14:54:17.973Z,33.90
2019-05-02T14:56:59.262Z,34.60
2019-05-02T14:59:32.299Z,35.10
2019-05-02T15:02:07.521Z,35.80
2019-05-02T15:04:38.205Z,36.70
2019-05-02T15:07:33.696Z,37.10
2019-05-02T15:10:06.591Z,37.10
2019-05-02T15:12:37.294Z,37.20
2019-05-02T15:15:08.356Z,36.80
2019-05-02T15:17:38.018Z,36.50
2019-05-02T15:20:13.047Z,36.60
2019-05-02T15:22:42.620Z,36.40
2019-05-02T15:25:17.842Z,36.40
2019-05-02T15:27:49.959Z,36.50
2019-05-02T15:30:20.896Z,36.80
2019-05-02T15:33:04.334Z,37.00
2019-05-02T15:35:43.648Z,36.80
2019-05-02T15:38:24.248Z,37.60
2019-05-02T15:40:53.741Z,37.70
2019-05-02T15:43:23.612Z,37.90
2019-05-02T15:45:52.980Z,37.60
2019-05-02T15:48:27.753Z,37.60
2019-05-02T15:51:00.014Z,36.80
2019-05-02T15:53:39.146Z,37.00
2019-05-02T15:56:18.702Z,37.50
2019-05-02T15:58:42.474Z,37.80
2019-05-02T16:01:28.630Z,38.00
2019-05-02T16:03:58.561Z,38.10
2019-05-02T16:06:31.553Z,38.60
2019-05-02T16:08:58.945Z,39.00
2019-05-02T16:11:32.235Z,39.50
2019-05-02T16:14:02.184Z,40.10
2019-05-02T16:16:32.076Z,40.50
2019-05-02T16:19:02.903Z,41.10
2019-05-02T16:21:52.015Z,41.50
2019-05-02T16:24:24.897Z,41.80
2019-05-02T16:26:56.840Z,42.00
2019-05-02T16:29:31.714Z,42.20
2019-05-02T16:32:13.291Z,42.50
2019-05-02T16:35:15.596Z,42.80
2019-05-02T16:37:39.591Z,42.90
2019-05-02T16:40:12.056Z,43.40
2019-05-02T16:42:41.920Z,43.80
2019-05-02T16:45:12.027Z,43.20
2019-05-02T16:47:42.635Z,42.50
2019-05-02T16:50:12.657Z,42.40
2019-05-02T16:52:50.010Z,42.90
2019-05-02T16:55:20.722Z,42.70
2019-05-02T16:57:51.899Z,42.60
2019-05-02T17:00:23.461Z,42.70
2019-05-02T17:02:53.869Z,42.40
2019-05-02T17:05:32.522Z,42.10
2019-05-02T17:08:23.499Z,41.80
2019-05-02T17:10:57.169Z,41.60
2019-05-02T17:13:32.156Z,41.60
2019-05-02T17:15:59.082Z,41.80
2019-05-02T17:18:29.471Z,41.70
2019-05-02T17:21:01.692Z,42.00
2019-05-02T17:23:32.849Z,41.90
2019-05-02T17:26:04.253Z,42.00
2019-05-02T17:28:33.512Z,42.20
2019-05-02T17:31:03.440Z,42.30
2019-05-02T17:33:34.126Z,42.50
2019-05-02T17:36:05.542Z,42.90
2019-05-02T17:38:36.980Z,43.00
2019-05-02T17:41:07.886Z,43.30
2019-05-02T17:43:41.903Z,43.50
2019-05-02T17:46:12.849Z,43.80
2019-05-02T17:48:40.078Z,44.10
2019-05-02T17:51:37.754Z,44.40
2019-05-02T17:54:08.697Z,44.70
2019-05-02T17:56:42.362Z,45.00
2019-05-02T17:59:11.857Z,45.20
2019-05-02T18:01:41.899Z,45.50
2019-05-02T18:04:12.756Z,45.90
2019-05-02T18:06:42.299Z,46.20
2019-05-02T18:09:12.321Z,46.50
2019-05-02T18:11:43.878Z,46.50
2019-05-02T18:14:19.671Z,46.60
2019-05-02T18:16:47.099Z,46.80
2019-05-02T18:19:24.690Z,47.20
2019-05-02T18:21:58.289Z,47.10
2019-05-02T18:24:25.686Z,47.30
2019-05-02T18:26:54.903Z,47.50
2019-05-02T18:29:24.311Z,48.00
2019-05-02T18:31:55.711Z,48.10
2019-05-02T18:34:25.482Z,48.20
2019-05-02T18:36:57.313Z,48.30
2019-05-02T18:39:26.157Z,48.50
2019-05-02T18:41:55.471Z,48.60
2019-05-02T18:44:24.753Z,48.60
2019-05-02T18:46:57.703Z,48.80
2019-05-02T18:49:29.780Z,49.00
2019-05-02T18:52:01.618Z,49.00
2019-05-02T18:54:38.642Z,49.30
2019-05-02T18:57:08.179Z,49.50
2019-05-02T18:59:37.696Z,49.60
2019-05-02T19:02:08.432Z,50.00
2019-05-02T19:04:43.531Z,50.20
2019-05-02T19:07:15.823Z,50.50
2019-05-02T19:09:51.405Z,50.70
2019-05-02T19:12:25.391Z,51.00
2019-05-02T19:14:57.334Z,51.20
2019-05-02T19:17:38.493Z,51.50
2019-05-02T19:20:10.949Z,51.60
2019-05-02T19:22:48.131Z,51.80
2019-05-02T19:25:08.771Z,52.10
2019-05-02T19:27:57.609Z,52.30
2019-05-02T19:30:32.488Z,52.40
2019-05-02T19:33:03.625Z,52.50
2019-05-02T19:35:37.651Z,52.70
2019-05-02T19:38:06.555Z,53.00
2019-05-02T19:40:36.446Z,53.10
2019-05-02T19:43:07.622Z,53.20
2019-05-02T19:45:37.388Z,53.50
2019-05-02T19:48:06.796Z,53.70
2019-05-02T19:50:43.713Z,53.80
2019-05-02T19:53:14.822Z,54.00
2019-05-02T19:55:42.712Z,54.10
2019-05-02T19:58:11.551Z,54.20
2019-05-02T20:00:42.345Z,54.30
2019-05-02T20:03:21.529Z,54.40
2019-05-02T20:05:48.428Z,54.60
2019-05-02T20:08:21.329Z,54.60
2019-05-02T20:10:49.343Z,54.80
2019-05-02T20:13:20.295Z,55.00
2019-05-02T20:15:57.137Z,55.00
2019-05-02T20:18:28.225Z,55.30
2019-05-02T20:21:23.388Z,55.40
2019-05-02T20:23:48.380Z,55.60
2019-05-02T20:26:17.699Z,55.60
2019-05-02T20:28:47.017Z,55.80
2019-05-02T20:31:59.267Z,55.90
2019-05-02T20:34:28.886Z,55.90
2019-05-02T20:36:58.240Z,55.60
2019-05-02T20:39:27.461Z,55.60
2019-05-02T20:41:57.670Z,55.40
2019-05-02T20:44:27.083Z,55.50
2019-05-02T20:46:56.533Z,55.60
2019-05-02T20:49:25.925Z,55.70
2019-05-02T20:51:55.276Z,55.70
2019-05-02T20:54:24.923Z,55.80
2019-05-02T20:56:54.329Z,55.80
2019-05-02T20:59:23.710Z,55.90
2019-05-02T21:01:53.084Z,55.90
2019-05-02T21:04:22.809Z,55.90
2019-05-02T21:06:59.264Z,55.80
2019-05-02T21:09:42.172Z,55.70
2019-05-02T21:12:12.599Z,55.80
2019-05-02T21:14:42.153Z,55.80
2019-05-02T21:17:12.804Z,55.60
2019-05-02T21:19:45.102Z,55.50
2019-05-02T21:22:19.273Z,55.50
2019-05-02T21:24:48.624Z,55.60
2019-05-02T21:27:18.088Z,55.60
2019-05-02T21:29:47.465Z,55.80
2019-05-02T21:32:16.831Z,55.80
2019-05-02T21:34:47.175Z,55.80
2019-05-02T21:37:17.897Z,55.90
2019-05-02T21:39:47.268Z,56.10
2019-05-02T21:42:16.624Z,56.10
2019-05-02T21:44:46.072Z,56.20
2019-05-02T21:47:16.229Z,56.30
2019-05-02T21:49:54.051Z,56.50
2019-05-02T21:52:38.158Z,56.60
2019-05-02T21:55:38.859Z,56.70
2019-05-02T21:58:08.297Z,56.80
2019-05-02T22:00:58.477Z,56.90
2019-05-02T22:03:27.851Z,57.10
2019-05-02T22:05:57.194Z,57.10
2019-05-02T22:08:26.480Z,57.40
2019-05-02T22:10:55.861Z,57.50
2019-05-02T22:13:27.405Z,57.50
2019-05-02T22:15:56.775Z,57.80
2019-05-02T22:18:26.091Z,57.70
2019-05-02T22:20:58.173Z,57.90
2019-05-02T22:23:27.555Z,57.90
2019-05-02T22:25:59.293Z,58.10
2019-05-02T22:28:28.631Z,58.10
2019-05-02T22:30:57.999Z,58.10
2019-05-02T22:33:27.295Z,58.30
2019-05-02T22:35:56.619Z,58.20
2019-05-02T22:38:42.578Z,58.30
2019-05-02T22:41:12.542Z,58.30
2019-05-02T22:43:42.235Z,58.40
2019-05-02T22:46:37.438Z,58.40
2019-05-02T22:49:06.862Z,58.40
2019-05-02T22:51:37.669Z,58.30
2019-05-02T22:54:20.726Z,58.40
2019-05-02T22:56:39.438Z,58.30
2019-05-02T22:59:08.877Z,58.30
2019-05-02T23:01:38.327Z,58.40
2019-05-02T23:04:07.700Z,58.40
2019-05-02T23:06:37.122Z,58.50
2019-05-02T23:09:07.855Z,58.50
2019-05-02T23:11:38.448Z,58.60
2019-05-02T23:14:07.830Z,58.50
2019-05-02T23:16:37.124Z,58.50
2019-05-02T23:19:06.556Z,58.50
2019-05-02T23:21:35.948Z,58.60
2019-05-02T23:24:09.628Z,58.60
2019-05-02T23:26:56.619Z,58.60
2019-05-02T23:29:26.110Z,58.60
2019-05-02T23:31:58.429Z,58.70
2019-05-02T23:34:27.956Z,58.70
2019-05-02T23:36:57.229Z,58.80
2019-05-02T23:39:26.588Z,58.90
2019-05-02T23:41:55.895Z,58.90
2019-05-02T23:44:25.187Z,58.90
2019-05-02T23:46:55.410Z,58.80
2019-05-02T23:49:24.792Z,58.80
2019-05-02T23:51:54.117Z,58.70
2019-05-02T23:54:23.449Z,58.80
2019-05-02T23:56:52.774Z,58.80
2019-05-02T23:59:22.413Z,58.70
